createdAt,value
2022-07-28T00:19:56.183Z,12
2022-07-28T00:49:58.190Z,12
2022-07-28T01:20:00.994Z,11
2022-07-28T01:50:01.661Z,12
2022-07-28T02:20:02.445Z,12
2022-07-28T02:50:02.402Z,13
2022-07-28T03:20:02.085Z,12
2022-07-28T03:50:03.954Z,13
2022-07-28T04:20:05.625Z,15
2022-07-28T04:50:09.013Z,12
2022-07-28T05:20:15.066Z,12
2022-07-28T05:50:22.532Z,14
2022-07-28T06:20:29.304Z,12
2022-07-28T06:50:36.149Z,15
2022-07-28T07:20:44.807Z,16
2022-07-28T07:50:53.577Z,16
2022-07-28T08:21:02.480Z,14
2022-07-28T08:51:14.347Z,15
2022-07-28T09:21:31.547Z,38
2022-07-28T09:51:39.904Z,19
2022-07-28T10:21:44.228Z,18
2022-07-28T10:51:55.990Z,19
2022-07-28T11:21:58.120Z,19
2022-07-28T11:52:06.097Z,20
2022-07-28T12:22:14.724Z,19
2022-07-28T12:52:13.413Z,22
2022-07-28T13:22:12.156Z,22
2022-07-28T13:52:15.106Z,23
2022-07-28T14:22:16.870Z,24
2022-07-28T14:52:17.037Z,24
2022-07-28T15:22:18.892Z,24
2022-07-28T15:52:21.810Z,24
2022-07-28T16:22:22.199Z,23
2022-07-28T16:52:23.047Z,24
2022-07-28T17:22:22.825Z,24
2022-07-28T17:52:30.691Z,24
2022-07-28T18:22:30.742Z,23
2022-07-28T18:52:30.570Z,27
2022-07-28T19:22:29.639Z,23
2022-07-28T19:52:28.184Z,25
2022-07-28T20:22:27.897Z,25
2022-07-28T20:52:28.913Z,25
2022-07-28T21:22:28.870Z,26
2022-07-28T21:52:28.892Z,25
2022-07-28T22:22:29.614Z,26
2022-07-28T22:52:29.229Z,28
2022-07-28T23:22:30.707Z,27
2022-07-28T23:52:31.724Z,27
